sensor_id;sensor_type;location;lat;lon;timestamp;P1;durP1;ratioP1;P2;durP2;ratioP2
14021;SDS011;7086;48.116;11.580;2023-04-03T00:01:59;5.75;;;5.28;;
14021;SDS011;7086;48.116;11.580;2023-04-03T00:04:26;6.95;;;5.85;;
14021;SDS011;7086;48.116;11.580;2023-04-03T00:06:54;6.03;;;5.63;;
14021;SDS011;7086;48.116;11.580;2023-04-03T00:09:21;5.47;;;5.07;;
14021;SDS011;7086;48.116;11.580;2023-04-03T00:11:48;4.97;;;4.57;;
14021;SDS011;7086;48.116;11.580;2023-04-03T00:14:14;6.22;;;5.72;;
14021;SDS011;7086;48.116;11.580;2023-04-03T00:16:42;6.03;;;5.45;;
14021;SDS011;7086;48.116;11.580;2023-04-03T00:19:08;5.95;;;5.50;;
14021;SDS011;7086;48.116;11.580;2023-04-03T00:21:36;5.50;;;5.20;;
14021;SDS011;7086;48.116;11.580;2023-04-03T00:24:05;6.03;;;5.63;;
14021;SDS011;7086;48.116;11.580;2023-04-03T00:26:32;6.68;;;5.93;;
14021;SDS011;7086;48.116;11.580;2023-04-03T00:28:59;5.28;;;4.80;;
14021;SDS011;7086;48.116;11.580;2023-04-03T00:31:25;5.65;;;5.35;;
14021;SDS011;7086;48.116;11.580;2023-04-03T00:33:52;5.50;;;5.07;;
14021;SDS011;7086;48.116;11.580;2023-04-03T00:36:19;4.80;;;4.47;;
14021;SDS011;7086;48.116;11.580;2023-04-03T00:38:46;5.82;;;5.43;;
14021;SDS011;7086;48.116;11.580;2023-04-03T00:41:14;5.68;;;5.18;;
14021;SDS011;7086;48.116;11.580;2023-04-03T00:43:41;4.68;;;4.30;;
14021;SDS011;7086;48.116;11.580;2023-04-03T00:46:08;8.23;;;5.40;;
14021;SDS011;7086;48.116;11.580;2023-04-03T00:48:36;4.85;;;4.55;;
14021;SDS011;7086;48.116;11.580;2023-04-03T00:51:06;5.13;;;4.82;;
14021;SDS011;7086;48.116;11.580;2023-04-03T00:53:37;5.68;;;5.30;;
14021;SDS011;7086;48.116;11.580;2023-04-03T00:56:06;5.43;;;5.05;;
14021;SDS011;7086;48.116;11.580;2023-04-03T00:58:38;6.32;;;5.82;;
14021;SDS011;7086;48.116;11.580;2023-04-03T01:01:11;6.05;;;4.40;;
14021;SDS011;7086;48.116;11.580;2023-04-03T01:03:40;5.70;;;5.07;;
14021;SDS011;7086;48.116;11.580;2023-04-03T01:06:07;5.55;;;5.15;;
14021;SDS011;7086;48.116;11.580;2023-04-03T01:08:34;5.53;;;5.03;;
14021;SDS011;7086;48.116;11.580;2023-04-03T01:11:01;6.20;;;5.60;;
14021;SDS011;7086;48.116;11.580;2023-04-03T01:13:29;5.25;;;4.82;;
14021;SDS011;7086;48.116;11.580;2023-04-03T01:16:01;4.90;;;4.60;;
14021;SDS011;7086;48.116;11.580;2023-04-03T01:18:30;4.05;;;3.85;;
14021;SDS011;7086;48.116;11.580;2023-04-03T01:21:10;5.88;;;5.38;;
14021;SDS011;7086;48.116;11.580;2023-04-03T01:23:58;4.80;;;4.50;;
14021;SDS011;7086;48.116;11.580;2023-04-03T01:26:32;5.65;;;5.15;;
14021;SDS011;7086;48.116;11.580;2023-04-03T01:29:00;5.32;;;4.93;;
14021;SDS011;7086;48.116;11.580;2023-04-03T01:31:30;4.80;;;4.45;;
14021;SDS011;7086;48.116;11.580;2023-04-03T01:34:00;4.78;;;4.47;;
14021;SDS011;7086;48.116;11.580;2023-04-03T01:36:28;4.53;;;4.22;;
14021;SDS011;7086;48.116;11.580;2023-04-03T01:38:57;4.95;;;4.65;;
14021;SDS011;7086;48.116;11.580;2023-04-03T01:41:25;4.80;;;4.50;;
14021;SDS011;7086;48.116;11.580;2023-04-03T01:43:52;5.68;;;5.28;;
14021;SDS011;7086;48.116;11.580;2023-04-03T01:46:19;5.40;;;5.00;;
14021;SDS011;7086;48.116;11.580;2023-04-03T01:48:46;5.38;;;4.97;;
14021;SDS011;7086;48.116;11.580;2023-04-03T01:51:15;4.68;;;4.38;;
14021;SDS011;7086;48.116;11.580;2023-04-03T01:53:42;4.93;;;4.40;;
14021;SDS011;7086;48.116;11.580;2023-04-03T01:56:09;5.05;;;4.50;;
14021;SDS011;7086;48.116;11.580;2023-04-03T01:58:35;5.32;;;4.82;;
14021;SDS011;7086;48.116;11.580;2023-04-03T02:01:02;5.57;;;5.10;;
14021;SDS011;7086;48.116;11.580;2023-04-03T02:03:29;5.40;;;4.88;;
14021;SDS011;7086;48.116;11.580;2023-04-03T02:05:56;4.07;;;3.85;;
14021;SDS011;7086;48.116;11.580;2023-04-03T02:08:25;4.80;;;4.50;;
14021;SDS011;7086;48.116;11.580;2023-04-03T02:10:51;4.97;;;4.35;;
14021;SDS011;7086;48.116;11.580;2023-04-03T02:13:18;4.90;;;4.60;;
14021;SDS011;7086;48.116;11.580;2023-04-03T02:15:46;4.88;;;4.57;;
14021;SDS011;7086;48.116;11.580;2023-04-03T02:18:13;4.75;;;4.40;;
14021;SDS011;7086;48.116;11.580;2023-04-03T02:20:40;4.47;;;4.18;;
14021;SDS011;7086;48.116;11.580;2023-04-03T02:23:07;5.53;;;5.13;;
14021;SDS011;7086;48.116;11.580;2023-04-03T02:25:35;5.32;;;4.93;;
14021;SDS011;7086;48.116;11.580;2023-04-03T02:28:02;5.32;;;4.93;;
14021;SDS011;7086;48.116;11.580;2023-04-03T02:30:29;5.45;;;4.95;;
14021;SDS011;7086;48.116;11.580;2023-04-03T02:32:56;3.65;;;3.35;;
14021;SDS011;7086;48.116;11.580;2023-04-03T02:35:23;5.10;;;4.78;;
14021;SDS011;7086;48.116;11.580;2023-04-03T02:37:51;4.78;;;4.35;;
14021;SDS011;7086;48.116;11.580;2023-04-03T02:40:18;4.85;;;4.55;;
14021;SDS011;7086;48.116;11.580;2023-04-03T02:42:47;4.80;;;4.50;;
14021;SDS011;7086;48.116;11.580;2023-04-03T02:45:14;5.22;;;4.88;;
14021;SDS011;7086;48.116;11.580;2023-04-03T02:47:41;5.00;;;4.60;;
14021;SDS011;7086;48.116;11.580;2023-04-03T02:50:08;4.20;;;3.90;;
14021;SDS011;7086;48.116;11.580;2023-04-03T02:52:35;4.60;;;4.28;;
14021;SDS011;7086;48.116;11.580;2023-04-03T02:55:02;4.25;;;3.95;;
14021;SDS011;7086;48.116;11.580;2023-04-03T02:57:29;4.82;;;4.43;;
14021;SDS011;7086;48.116;11.580;2023-04-03T02:59:57;4.40;;;4.07;;
14021;SDS011;7086;48.116;11.580;2023-04-03T03:02:24;4.90;;;4.45;;
14021;SDS011;7086;48.116;11.580;2023-04-03T03:04:51;4.13;;;3.85;;
14021;SDS011;7086;48.116;11.580;2023-04-03T03:07:18;4.57;;;4.28;;
14021;SDS011;7086;48.116;11.580;2023-04-03T03:09:44;7.70;;;4.75;;
14021;SDS011;7086;48.116;11.580;2023-04-03T03:12:11;5.20;;;4.20;;
14021;SDS011;7086;48.116;11.580;2023-04-03T03:14:38;3.85;;;3.55;;
14021;SDS011;7086;48.116;11.580;2023-04-03T03:17:07;3.88;;;3.58;;
14021;SDS011;7086;48.116;11.580;2023-04-03T03:19:33;3.95;;;3.47;;
14021;SDS011;7086;48.116;11.580;2023-04-03T03:22:00;3.58;;;3.38;;
14021;SDS011;7086;48.116;11.580;2023-04-03T03:24:27;3.67;;;3.47;;
14021;SDS011;7086;48.116;11.580;2023-04-03T03:26:54;3.88;;;3.67;;
14021;SDS011;7086;48.116;11.580;2023-04-03T03:29:21;3.17;;;3.08;;
14021;SDS011;7086;48.116;11.580;2023-04-03T03:31:48;3.70;;;3.50;;
14021;SDS011;7086;48.116;11.580;2023-04-03T03:34:16;3.63;;;3.40;;
14021;SDS011;7086;48.116;11.580;2023-04-03T03:36:43;4.97;;;3.35;;
14021;SDS011;7086;48.116;11.580;2023-04-03T03:39:10;3.53;;;3.22;;
14021;SDS011;7086;48.116;11.580;2023-04-03T03:41:38;3.47;;;3.28;;
14021;SDS011;7086;48.116;11.580;2023-04-03T03:44:04;4.22;;;3.33;;
14021;SDS011;7086;48.116;11.580;2023-04-03T03:46:31;4.25;;;3.92;;
14021;SDS011;7086;48.116;11.580;2023-04-03T03:48:58;2.90;;;2.80;;
14021;SDS011;7086;48.116;11.580;2023-04-03T03:51:26;3.75;;;3.45;;
14021;SDS011;7086;48.116;11.580;2023-04-03T03:53:54;3.97;;;3.67;;
14021;SDS011;7086;48.116;11.580;2023-04-03T03:56:21;2.75;;;2.55;;
14021;SDS011;7086;48.116;11.580;2023-04-03T03:58:47;4.80;;;3.40;;
14021;SDS011;7086;48.116;11.580;2023-04-03T04:01:16;3.30;;;3.13;;
14021;SDS011;7086;48.116;11.580;2023-04-03T04:03:44;2.92;;;2.72;;
14021;SDS011;7086;48.116;11.580;2023-04-03T04:06:10;2.85;;;2.65;;
14021;SDS011;7086;48.116;11.580;2023-04-03T04:08:39;3.50;;;3.15;;
14021;SDS011;7086;48.116;11.580;2023-04-03T04:11:05;2.88;;;2.78;;
14021;SDS011;7086;48.116;11.580;2023-04-03T04:13:32;3.88;;;3.58;;
14021;SDS011;7086;48.116;11.580;2023-04-03T04:15:59;2.83;;;2.70;;
14021;SDS011;7086;48.116;11.580;2023-04-03T04:18:27;3.30;;;3.10;;
14021;SDS011;7086;48.116;11.580;2023-04-03T04:20:53;3.33;;;3.00;;
14021;SDS011;7086;48.116;11.580;2023-04-03T04:23:20;3.67;;;3.47;;
14021;SDS011;7086;48.116;11.580;2023-04-03T04:25:48;2.92;;;2.78;;
14021;SDS011;7086;48.116;11.580;2023-04-03T04:28:15;4.07;;;3.85;;
14021;SDS011;7086;48.116;11.580;2023-04-03T04:30:43;3.30;;;3.15;;
14021;SDS011;7086;48.116;11.580;2023-04-03T04:33:10;3.47;;;3.28;;
14021;SDS011;7086;48.116;11.580;2023-04-03T04:35:38;3.67;;;3.38;;
14021;SDS011;7086;48.116;11.580;2023-04-03T04:38:05;4.18;;;3.72;;
14021;SDS011;7086;48.116;11.580;2023-04-03T04:40:33;3.92;;;3.47;;
14021;SDS011;7086;48.116;11.580;2023-04-03T04:43:04;4.20;;;3.95;;
14021;SDS011;7086;48.116;11.580;2023-04-03T04:45:33;3.65;;;3.45;;
14021;SDS011;7086;48.116;11.580;2023-04-03T04:48:00;3.38;;;3.17;;
14021;SDS011;7086;48.116;11.580;2023-04-03T04:50:27;3.13;;;2.92;;
14021;SDS011;7086;48.116;11.580;2023-04-03T04:52:56;3.88;;;3.25;;
14021;SDS011;7086;48.116;11.580;2023-04-03T04:55:23;3.42;;;3.22;;
14021;SDS011;7086;48.116;11.580;2023-04-03T04:57:50;2.97;;;2.78;;
14021;SDS011;7086;48.116;11.580;2023-04-03T05:00:18;4.82;;;3.30;;
14021;SDS011;7086;48.116;11.580;2023-04-03T05:02:46;3.65;;;3.35;;
14021;SDS011;7086;48.116;11.580;2023-04-03T05:05:13;4.25;;;3.95;;
14021;SDS011;7086;48.116;11.580;2023-04-03T05:07:40;3.92;;;3.72;;
14021;SDS011;7086;48.116;11.580;2023-04-03T05:10:07;3.58;;;3.38;;
14021;SDS011;7086;48.116;11.580;2023-04-03T05:12:35;3.85;;;3.55;;
14021;SDS011;7086;48.116;11.580;2023-04-03T05:15:02;3.30;;;3.05;;
14021;SDS011;7086;48.116;11.580;2023-04-03T05:17:31;3.03;;;2.88;;
14021;SDS011;7086;48.116;11.580;2023-04-03T05:19:58;3.40;;;3.20;;
14021;SDS011;7086;48.116;11.580;2023-04-03T05:22:25;3.60;;;3.33;;
14021;SDS011;7086;48.116;11.580;2023-04-03T05:24:52;3.70;;;3.50;;
14021;SDS011;7086;48.116;11.580;2023-04-03T05:27:20;3.78;;;3.47;;
14021;SDS011;7086;48.116;11.580;2023-04-03T05:29:49;3.65;;;3.45;;
14021;SDS011;7086;48.116;11.580;2023-04-03T05:32:16;4.13;;;3.83;;
14021;SDS011;7086;48.116;11.580;2023-04-03T05:34:44;4.07;;;3.78;;
14021;SDS011;7086;48.116;11.580;2023-04-03T05:37:12;3.50;;;3.30;;
14021;SDS011;7086;48.116;11.580;2023-04-03T05:39:38;3.72;;;3.30;;
14021;SDS011;7086;48.116;11.580;2023-04-03T05:42:06;2.60;;;2.50;;
14021;SDS011;7086;48.116;11.580;2023-04-03T05:44:33;3.70;;;3.50;;
14021;SDS011;7086;48.116;11.580;2023-04-03T05:47:01;2.95;;;2.75;;
14021;SDS011;7086;48.116;11.580;2023-04-03T05:49:29;3.53;;;3.33;;
14021;SDS011;7086;48.116;11.580;2023-04-03T05:52:02;3.20;;;3.00;;
14021;SDS011;7086;48.116;11.580;2023-04-03T05:54:30;4.22;;;3.90;;
14021;SDS011;7086;48.116;11.580;2023-04-03T05:57:04;3.65;;;3.50;;
14021;SDS011;7086;48.116;11.580;2023-04-03T05:59:31;3.47;;;3.28;;
14021;SDS011;7086;48.116;11.580;2023-04-03T06:01:58;3.40;;;3.30;;
14021;SDS011;7086;48.116;11.580;2023-04-03T06:04:30;4.20;;;3.90;;
14021;SDS011;7086;48.116;11.580;2023-04-03T06:06:57;4.75;;;3.88;;
14021;SDS011;7086;48.116;11.580;2023-04-03T06:09:26;4.30;;;4.00;;
14021;SDS011;7086;48.116;11.580;2023-04-03T06:11:55;3.80;;;3.53;;
14021;SDS011;7086;48.116;11.580;2023-04-03T06:14:23;4.18;;;3.50;;
14021;SDS011;7086;48.116;11.580;2023-04-03T06:16:50;3.83;;;3.63;;
14021;SDS011;7086;48.116;11.580;2023-04-03T06:19:19;3.17;;;3.03;;
14021;SDS011;7086;48.116;11.580;2023-04-03T06:21:49;3.58;;;3.28;;
14021;SDS011;7086;48.116;11.580;2023-04-03T06:24:22;4.97;;;3.58;;
14021;SDS011;7086;48.116;11.580;2023-04-03T06:26:54;3.65;;;3.35;;
14021;SDS011;7086;48.116;11.580;2023-04-03T06:29:37;2.85;;;2.65;;
14021;SDS011;7086;48.116;11.580;2023-04-03T06:32:07;3.85;;;3.65;;
14021;SDS011;7086;48.116;11.580;2023-04-03T06:34:37;3.63;;;3.42;;
14021;SDS011;7086;48.116;11.580;2023-04-03T06:37:06;4.07;;;3.67;;
14021;SDS011;7086;48.116;11.580;2023-04-03T06:39:39;3.25;;;3.05;;
14021;SDS011;7086;48.116;11.580;2023-04-03T06:42:19;5.13;;;4.15;;
14021;SDS011;7086;48.116;11.580;2023-04-03T06:44:55;5.25;;;4.35;;
14021;SDS011;7086;48.116;11.580;2023-04-03T06:47:27;3.88;;;3.55;;
14021;SDS011;7086;48.116;11.580;2023-04-03T06:50:00;3.60;;;3.38;;
14021;SDS011;7086;48.116;11.580;2023-04-03T06:52:30;4.25;;;3.85;;
14021;SDS011;7086;48.116;11.580;2023-04-03T06:55:05;5.38;;;3.95;;
14021;SDS011;7086;48.116;11.580;2023-04-03T06:57:38;8.27;;;4.50;;
14021;SDS011;7086;48.116;11.580;2023-04-03T07:00:06;4.18;;;3.92;;
14021;SDS011;7086;48.116;11.580;2023-04-03T07:02:35;5.68;;;3.78;;
14021;SDS011;7086;48.116;11.580;2023-04-03T07:05:03;3.40;;;3.10;;
14021;SDS011;7086;48.116;11.580;2023-04-03T07:07:37;4.55;;;4.15;;
14021;SDS011;7086;48.116;11.580;2023-04-03T07:10:07;4.50;;;4.07;;
14021;SDS011;7086;48.116;11.580;2023-04-03T07:12:40;4.32;;;3.92;;
14021;SDS011;7086;48.116;11.580;2023-04-03T07:15:11;4.60;;;3.92;;
14021;SDS011;7086;48.116;11.580;2023-04-03T07:17:39;4.18;;;3.83;;
14021;SDS011;7086;48.116;11.580;2023-04-03T07:20:08;3.92;;;3.63;;
14021;SDS011;7086;48.116;11.580;2023-04-03T07:22:35;4.05;;;3.75;;
14021;SDS011;7086;48.116;11.580;2023-04-03T07:25:03;3.67;;;3.40;;
14021;SDS011;7086;48.116;11.580;2023-04-03T07:27:35;4.22;;;3.90;;
14021;SDS011;7086;48.116;11.580;2023-04-03T07:30:05;4.88;;;4.47;;
14021;SDS011;7086;48.116;11.580;2023-04-03T07:32:34;3.63;;;3.33;;
14021;SDS011;7086;48.116;11.580;2023-04-03T07:35:03;5.25;;;3.95;;
14021;SDS011;7086;48.116;11.580;2023-04-03T07:37:31;4.18;;;3.90;;
14021;SDS011;7086;48.116;11.580;2023-04-03T07:39:58;6.38;;;3.67;;
14021;SDS011;7086;48.116;11.580;2023-04-03T07:42:28;8.48;;;3.97;;
14021;SDS011;7086;48.116;11.580;2023-04-03T07:45:10;4.40;;;3.90;;
14021;SDS011;7086;48.116;11.580;2023-04-03T07:47:42;5.35;;;4.93;;
14021;SDS011;7086;48.116;11.580;2023-04-03T07:50:15;4.57;;;4.20;;
14021;SDS011;7086;48.116;11.580;2023-04-03T07:52:54;4.50;;;4.10;;
14021;SDS011;7086;48.116;11.580;2023-04-03T07:55:36;4.88;;;4.47;;
14021;SDS011;7086;48.116;11.580;2023-04-03T07:58:10;4.10;;;3.80;;
14021;SDS011;7086;48.116;11.580;2023-04-03T08:00:47;4.72;;;4.28;;
14021;SDS011;7086;48.116;11.580;2023-04-03T08:03:14;5.03;;;4.60;;
14021;SDS011;7086;48.116;11.580;2023-04-03T08:05:43;4.63;;;4.20;;
14021;SDS011;7086;48.116;11.580;2023-04-03T08:08:11;6.10;;;5.07;;
14021;SDS011;7086;48.116;11.580;2023-04-03T08:10:39;5.15;;;4.75;;
14021;SDS011;7086;48.116;11.580;2023-04-03T08:13:07;3.78;;;3.47;;
14021;SDS011;7086;48.116;11.580;2023-04-03T08:15:34;5.63;;;5.13;;
14021;SDS011;7086;48.116;11.580;2023-04-03T08:18:03;5.85;;;5.35;;
14021;SDS011;7086;48.116;11.580;2023-04-03T08:20:30;5.47;;;4.68;;
14021;SDS011;7086;48.116;11.580;2023-04-03T08:22:57;5.63;;;5.07;;
14021;SDS011;7086;48.116;11.580;2023-04-03T08:25:24;4.68;;;4.28;;
14021;SDS011;7086;48.116;11.580;2023-04-03T08:27:51;5.65;;;4.53;;
14021;SDS011;7086;48.116;11.580;2023-04-03T08:30:18;4.78;;;4.38;;
14021;SDS011;7086;48.116;11.580;2023-04-03T08:32:45;5.00;;;4.57;;
14021;SDS011;7086;48.116;11.580;2023-04-03T08:35:13;4.80;;;4.40;;
14021;SDS011;7086;48.116;11.580;2023-04-03T08:37:40;4.72;;;4.32;;
14021;SDS011;7086;48.116;11.580;2023-04-03T08:40:10;4.50;;;4.10;;
14021;SDS011;7086;48.116;11.580;2023-04-03T08:42:41;4.75;;;4.32;;
14021;SDS011;7086;48.116;11.580;2023-04-03T08:45:18;5.35;;;4.80;;
14021;SDS011;7086;48.116;11.580;2023-04-03T08:47:53;6.50;;;5.22;;
14021;SDS011;7086;48.116;11.580;2023-04-03T08:50:30;4.95;;;4.50;;
14021;SDS011;7086;48.116;11.580;2023-04-03T08:53:00;5.95;;;5.45;;
14021;SDS011;7086;48.116;11.580;2023-04-03T08:55:32;5.07;;;4.68;;
14021;SDS011;7086;48.116;11.580;2023-04-03T08:58:01;4.78;;;4.38;;
14021;SDS011;7086;48.116;11.580;2023-04-03T09:00:32;4.97;;;4.53;;
14021;SDS011;7086;48.116;11.580;2023-04-03T09:03:10;5.90;;;4.40;;
14021;SDS011;7086;48.116;11.580;2023-04-03T09:05:41;5.25;;;4.75;;
14021;SDS011;7086;48.116;11.580;2023-04-03T09:08:14;5.22;;;4.20;;
14021;SDS011;7086;48.116;11.580;2023-04-03T09:10:48;5.13;;;4.70;;
14021;SDS011;7086;48.116;11.580;2023-04-03T09:13:19;4.90;;;4.55;;
14021;SDS011;7086;48.116;11.580;2023-04-03T09:15:53;5.53;;;4.43;;
14021;SDS011;7086;48.116;11.580;2023-04-03T09:18:23;4.70;;;3.58;;
14021;SDS011;7086;48.116;11.580;2023-04-03T09:20:59;4.60;;;4.20;;
14021;SDS011;7086;48.116;11.580;2023-04-03T09:23:34;4.50;;;4.10;;
14021;SDS011;7086;48.116;11.580;2023-04-03T09:26:05;4.70;;;4.30;;
14021;SDS011;7086;48.116;11.580;2023-04-03T09:28:37;4.70;;;4.40;;
14021;SDS011;7086;48.116;11.580;2023-04-03T09:31:11;4.43;;;4.15;;
14021;SDS011;7086;48.116;11.580;2023-04-03T09:33:45;4.65;;;4.25;;
14021;SDS011;7086;48.116;11.580;2023-04-03T09:36:14;4.30;;;3.90;;
14021;SDS011;7086;48.116;11.580;2023-04-03T09:39:09;4.47;;;4.18;;
14021;SDS011;7086;48.116;11.580;2023-04-03T09:41:54;4.50;;;4.20;;
14021;SDS011;7086;48.116;11.580;2023-04-03T09:44:27;4.88;;;4.45;;
14021;SDS011;7086;48.116;11.580;2023-04-03T09:46:56;5.75;;;5.07;;
14021;SDS011;7086;48.116;11.580;2023-04-03T09:49:23;4.88;;;4.47;;
14021;SDS011;7086;48.116;11.580;2023-04-03T09:51:52;5.32;;;3.50;;
14021;SDS011;7086;48.116;11.580;2023-04-03T09:54:24;4.63;;;4.07;;
14021;SDS011;7086;48.116;11.580;2023-04-03T09:57:01;3.00;;;2.83;;
14021;SDS011;7086;48.116;11.580;2023-04-03T09:59:34;3.90;;;3.70;;
14021;SDS011;7086;48.116;11.580;2023-04-03T10:02:22;4.43;;;4.13;;
14021;SDS011;7086;48.116;11.580;2023-04-03T10:05:02;3.70;;;3.40;;
14021;SDS011;7086;48.116;11.580;2023-04-03T10:07:37;3.63;;;3.30;;
14021;SDS011;7086;48.116;11.580;2023-04-03T10:10:26;4.15;;;3.85;;
14021;SDS011;7086;48.116;11.580;2023-04-03T10:13:09;2.88;;;2.75;;
14021;SDS011;7086;48.116;11.580;2023-04-03T10:15:44;5.90;;;3.80;;
14021;SDS011;7086;48.116;11.580;2023-04-03T10:18:29;4.40;;;4.00;;
14021;SDS011;7086;48.116;11.580;2023-04-03T10:21:04;4.55;;;4.13;;
14021;SDS011;7086;48.116;11.580;2023-04-03T10:23:39;3.30;;;3.10;;
14021;SDS011;7086;48.116;11.580;2023-04-03T10:26:27;4.65;;;4.25;;
14021;SDS011;7086;48.116;11.580;2023-04-03T10:29:05;4.65;;;4.13;;
14021;SDS011;7086;48.116;11.580;2023-04-03T10:31:46;4.90;;;4.15;;
14021;SDS011;7086;48.116;11.580;2023-04-03T10:34:20;4.70;;;4.30;;
14021;SDS011;7086;48.116;11.580;2023-04-03T10:37:05;4.55;;;4.25;;
14021;SDS011;7086;48.116;11.580;2023-04-03T10:39:46;6.00;;;4.70;;
14021;SDS011;7086;48.116;11.580;2023-04-03T10:42:23;9.15;;;8.10;;
14021;SDS011;7086;48.116;11.580;2023-04-03T10:45:06;28.10;;;22.83;;
14021;SDS011;7086;48.116;11.580;2023-04-03T10:47:47;8.43;;;6.63;;
14021;SDS011;7086;48.116;11.580;2023-04-03T10:50:24;4.70;;;4.30;;
14021;SDS011;7086;48.116;11.580;2023-04-03T10:53:01;3.90;;;3.70;;
14021;SDS011;7086;48.116;11.580;2023-04-03T10:55:40;4.13;;;3.75;;
14021;SDS011;7086;48.116;11.580;2023-04-03T10:58:18;4.78;;;4.32;;
14021;SDS011;7086;48.116;11.580;2023-04-03T11:00:52;5.05;;;3.30;;
14021;SDS011;7086;48.116;11.580;2023-04-03T11:03:29;3.53;;;3.33;;
14021;SDS011;7086;48.116;11.580;2023-04-03T11:06:00;5.25;;;3.70;;
14021;SDS011;7086;48.116;11.580;2023-04-03T11:08:37;4.20;;;3.55;;
14021;SDS011;7086;48.116;11.580;2023-04-03T11:11:14;4.00;;;3.70;;
14021;SDS011;7086;48.116;11.580;2023-04-03T11:13:44;3.53;;;3.33;;
14021;SDS011;7086;48.116;11.580;2023-04-03T11:16:21;6.70;;;4.45;;
14021;SDS011;7086;48.116;11.580;2023-04-03T11:18:55;8.02;;;4.20;;
14021;SDS011;7086;48.116;11.580;2023-04-03T11:21:27;4.18;;;3.80;;
14021;SDS011;7086;48.116;11.580;2023-04-03T11:23:59;3.65;;;3.17;;
14021;SDS011;7086;48.116;11.580;2023-04-03T11:26:35;3.65;;;3.45;;
14021;SDS011;7086;48.116;11.580;2023-04-03T11:29:05;2.95;;;2.83;;
14021;SDS011;7086;48.116;11.580;2023-04-03T11:31:41;5.18;;;3.92;;
14021;SDS011;7086;48.116;11.580;2023-04-03T11:34:25;8.25;;;6.18;;
14021;SDS011;7086;48.116;11.580;2023-04-03T11:37:04;4.10;;;3.75;;
14021;SDS011;7086;48.116;11.580;2023-04-03T11:39:46;4.93;;;3.45;;
14021;SDS011;7086;48.116;11.580;2023-04-03T11:42:33;4.78;;;3.65;;
14021;SDS011;7086;48.116;11.580;2023-04-03T11:45:16;6.55;;;5.78;;
14021;SDS011;7086;48.116;11.580;2023-04-03T11:48:00;3.97;;;3.72;;
14021;SDS011;7086;48.116;11.580;2023-04-03T11:50:44;3.83;;;3.53;;
14021;SDS011;7086;48.116;11.580;2023-04-03T11:53:27;3.72;;;3.42;;
14021;SDS011;7086;48.116;11.580;2023-04-03T11:56:01;3.78;;;3.45;;
14021;SDS011;7086;48.116;11.580;2023-04-03T11:58:33;3.00;;;2.67;;
14021;SDS011;7086;48.116;11.580;2023-04-03T12:04:12;2.88;;;2.70;;
14021;SDS011;7086;48.116;11.580;2023-04-03T12:12:29;3.22;;;3.00;;
14021;SDS011;7086;48.116;11.580;2023-04-03T12:21:19;3.65;;;2.58;;
14021;SDS011;7086;48.116;11.580;2023-04-03T12:24:02;2.60;;;2.38;;
14021;SDS011;7086;48.116;11.580;2023-04-03T12:26:50;2.47;;;2.38;;
14021;SDS011;7086;48.116;11.580;2023-04-03T12:29:29;6.15;;;4.13;;
14021;SDS011;7086;48.116;11.580;2023-04-03T12:32:05;2.85;;;2.58;;
14021;SDS011;7086;48.116;11.580;2023-04-03T12:34:43;3.90;;;2.33;;
14021;SDS011;7086;48.116;11.580;2023-04-03T12:37:26;2.80;;;2.60;;
14021;SDS011;7086;48.116;11.580;2023-04-03T12:40:15;2.45;;;2.35;;
14021;SDS011;7086;48.116;11.580;2023-04-03T12:43:00;4.93;;;2.47;;
14021;SDS011;7086;48.116;11.580;2023-04-03T12:45:39;2.83;;;2.10;;
14021;SDS011;7086;48.116;11.580;2023-04-03T12:48:15;2.55;;;2.00;;
14021;SDS011;7086;48.116;11.580;2023-04-03T12:50:45;2.70;;;2.50;;
14021;SDS011;7086;48.116;11.580;2023-04-03T12:53:15;3.30;;;3.10;;
14021;SDS011;7086;48.116;11.580;2023-04-03T12:55:45;2.88;;;2.17;;
14021;SDS011;7086;48.116;11.580;2023-04-03T12:58:14;3.80;;;2.30;;
14021;SDS011;7086;48.116;11.580;2023-04-03T13:00:43;4.20;;;2.00;;
14021;SDS011;7086;48.116;11.580;2023-04-03T13:03:19;3.22;;;2.30;;
14021;SDS011;7086;48.116;11.580;2023-04-03T13:05:49;4.50;;;1.83;;
14021;SDS011;7086;48.116;11.580;2023-04-03T13:08:19;6.88;;;2.05;;
14021;SDS011;7086;48.116;11.580;2023-04-03T13:10:51;2.00;;;1.90;;
14021;SDS011;7086;48.116;11.580;2023-04-03T13:13:21;3.22;;;1.70;;
14021;SDS011;7086;48.116;11.580;2023-04-03T13:15:49;2.20;;;2.05;;
14021;SDS011;7086;48.116;11.580;2023-04-03T13:18:21;3.30;;;3.03;;
14021;SDS011;7086;48.116;11.580;2023-04-03T13:20:49;2.22;;;1.92;;
14021;SDS011;7086;48.116;11.580;2023-04-03T13:23:18;1.88;;;1.65;;
14021;SDS011;7086;48.116;11.580;2023-04-03T13:25:48;2.00;;;1.90;;
14021;SDS011;7086;48.116;11.580;2023-04-03T13:28:17;2.78;;;2.22;;
14021;SDS011;7086;48.116;11.580;2023-04-03T13:30:59;1.80;;;1.70;;
14021;SDS011;7086;48.116;11.580;2023-04-03T13:33:31;1.67;;;1.52;;
14021;SDS011;7086;48.116;11.580;2023-04-03T13:36:03;1.85;;;1.67;;
14021;SDS011;7086;48.116;11.580;2023-04-03T13:38:34;1.42;;;1.33;;
14021;SDS011;7086;48.116;11.580;2023-04-03T13:41:03;3.00;;;1.80;;
14021;SDS011;7086;48.116;11.580;2023-04-03T13:43:33;2.33;;;2.03;;
14021;SDS011;7086;48.116;11.580;2023-04-03T13:46:20;7.65;;;3.83;;
14021;SDS011;7086;48.116;11.580;2023-04-03T13:48:56;2.83;;;1.80;;
14021;SDS011;7086;48.116;11.580;2023-04-03T13:51:24;2.00;;;1.90;;
14021;SDS011;7086;48.116;11.580;2023-04-03T13:54:01;5.85;;;2.83;;
14021;SDS011;7086;48.116;11.580;2023-04-03T13:56:44;2.65;;;2.20;;
14021;SDS011;7086;48.116;11.580;2023-04-03T13:59:22;4.05;;;1.83;;
14021;SDS011;7086;48.116;11.580;2023-04-03T14:01:53;2.30;;;2.10;;
14021;SDS011;7086;48.116;11.580;2023-04-03T14:04:33;2.95;;;1.63;;
14021;SDS011;7086;48.116;11.580;2023-04-03T14:07:12;3.55;;;1.90;;
14021;SDS011;7086;48.116;11.580;2023-04-03T14:09:42;1.63;;;1.60;;
14021;SDS011;7086;48.116;11.580;2023-04-03T14:12:12;2.08;;;1.70;;
14021;SDS011;7086;48.116;11.580;2023-04-03T14:14:41;1.50;;;1.50;;
14021;SDS011;7086;48.116;11.580;2023-04-03T14:17:13;7.50;;;2.47;;
14021;SDS011;7086;48.116;11.580;2023-04-03T14:19:46;3.55;;;2.13;;
14021;SDS011;7086;48.116;11.580;2023-04-03T14:22:15;1.70;;;1.60;;
14021;SDS011;7086;48.116;11.580;2023-04-03T14:24:49;2.25;;;2.10;;
14021;SDS011;7086;48.116;11.580;2023-04-03T14:27:18;2.03;;;1.75;;
14021;SDS011;7086;48.116;11.580;2023-04-03T14:29:47;1.90;;;1.80;;
14021;SDS011;7086;48.116;11.580;2023-04-03T14:32:16;1.50;;;1.40;;
14021;SDS011;7086;48.116;11.580;2023-04-03T14:34:44;1.98;;;1.70;;
14021;SDS011;7086;48.116;11.580;2023-04-03T14:37:13;1.92;;;1.77;;
14021;SDS011;7086;48.116;11.580;2023-04-03T14:39:42;2.00;;;1.80;;
14021;SDS011;7086;48.116;11.580;2023-04-03T14:42:15;1.65;;;1.55;;
14021;SDS011;7086;48.116;11.580;2023-04-03T14:44:43;2.45;;;1.55;;
14021;SDS011;7086;48.116;11.580;2023-04-03T14:47:11;1.50;;;1.40;;
14021;SDS011;7086;48.116;11.580;2023-04-03T14:49:41;2.45;;;1.90;;
14021;SDS011;7086;48.116;11.580;2023-04-03T14:52:15;1.75;;;1.65;;
14021;SDS011;7086;48.116;11.580;2023-04-03T14:54:46;1.85;;;1.70;;
14021;SDS011;7086;48.116;11.580;2023-04-03T14:57:15;1.63;;;1.52;;
14021;SDS011;7086;48.116;11.580;2023-04-03T14:59:43;4.38;;;1.67;;
14021;SDS011;7086;48.116;11.580;2023-04-03T15:02:22;1.83;;;1.73;;
14021;SDS011;7086;48.116;11.580;2023-04-03T15:04:52;1.88;;;1.70;;
14021;SDS011;7086;48.116;11.580;2023-04-03T15:07:20;1.90;;;1.80;;
14021;SDS011;7086;48.116;11.580;2023-04-03T15:09:47;2.65;;;1.85;;
14021;SDS011;7086;48.116;11.580;2023-04-03T15:12:18;3.47;;;2.20;;
14021;SDS011;7086;48.116;11.580;2023-04-03T15:14:46;4.80;;;1.80;;
14021;SDS011;7086;48.116;11.580;2023-04-03T15:17:26;1.75;;;1.65;;
14021;SDS011;7086;48.116;11.580;2023-04-03T15:19:54;3.95;;;1.60;;
14021;SDS011;7086;48.116;11.580;2023-04-03T15:22:21;1.92;;;1.70;;
14021;SDS011;7086;48.116;11.580;2023-04-03T15:24:48;3.25;;;2.45;;
14021;SDS011;7086;48.116;11.580;2023-04-03T15:27:17;1.90;;;1.80;;